首页
METAR-TAF:

METAR-TAF

机场 :

坦帕國際機場

坦帕, 佛罗里达州, 美国

纬度: 27-57-41N, 经度: 082-32-25W, 海拔: 8米

当前天气观测

该预报发布于27分钟前的10:53 UTC
风速6节,风向多变
温度 26°C
湿度 89%
气压 1016 hPa
能見度: 16.1公里
少量云层高于1400英尺
多云层高于1900英尺
阴天层高于2800英尺

METAR: KTPA 191053Z VRB06KT 10SM FEW014 BKN019 OVC028 26/24 A3000 RMK AO2 SLP159 T02610239

时间: 07:20 (11:20 UTC)

预报

该预报发布于2小时和33分钟前的08:47 UTC
预报有效从19日的 09点(UTC)到 20日的 12点(UTC)
风速5节,风向
能見度: 10公里
散云层高于2000英尺
多云层高于25000英尺
短暂存在
从 19日的 09点(UTC)到 19日的 12点(UTC)
多云层高于2000英尺
从 19日的 1300点(UTC)
风速10节,风向,有时为18节阵风
能見度: 10公里
散云层高于3000英尺
多云层高于25000英尺
几率 30%
从 19日的 16点(UTC)到 19日的 22点(UTC)
能見度: 8.0公里
多云层高于4000英尺, 积雨云.
雷暴, 小雨
从 20日的 0400点(UTC)
风速7节,风向东转东北
能見度: 10公里
散云层高于10000英尺
多云层高于25000英尺

TAF: KTPA 190847Z 1909/2012 08005KT P6SM SCT020 BKN250 TEMPO 1909/1912 BKN020 FM191300 08010G18KT P6SM SCT030 BKN250 PROB30 1916/1922 5SM -TSRA BKN040CB FM200400 07007KT P6SM SCT100 BKN250

超过4000个机场的气象观测和天气预报(METAR&TAF报告)。

可查询的气象台以黄色和红色小点在地图上表示。

将鼠标移到小点上方,可查看气象台名称。

然后点击查看天气观测和预报。

如需切换地图:点击带黑十字的绿色按钮放大地图;点击带横线的绿色按钮缩小地图;或者点击绿色箭头查看邻近地区的地图。


METAR-TAF: